sensor_id;sensor_type;location;lat;lon;timestamp;pressure;altitude;pressure_sealevel;temperature;humidity
41102;BME280;26845;50.190;19.178;2023-02-20T00:01:23;99280.77;;;0.27;88.40
41102;BME280;26845;50.190;19.178;2023-02-20T00:03:49;99284.19;;;0.28;88.66
41102;BME280;26845;50.190;19.178;2023-02-20T00:06:15;99279.99;;;0.31;88.49
41102;BME280;26845;50.190;19.178;2023-02-20T00:08:41;99271.34;;;0.36;88.56
41102;BME280;26845;50.190;19.178;2023-02-20T00:11:07;99274.38;;;0.38;88.38
41102;BME280;26845;50.190;19.178;2023-02-20T00:13:33;99272.21;;;0.41;88.40
41102;BME280;26845;50.190;19.178;2023-02-20T00:15:59;99268.02;;;0.44;88.39
41102;BME280;26845;50.190;19.178;2023-02-20T00:18:25;99262.67;;;0.45;88.37
41102;BME280;26845;50.190;19.178;2023-02-20T00:20:52;99262.63;;;0.45;88.28
41102;BME280;26845;50.190;19.178;2023-02-20T00:23:18;99262.34;;;0.50;88.47
41102;BME280;26845;50.190;19.178;2023-02-20T00:25:44;99263.66;;;0.55;88.56
41102;BME280;26845;50.190;19.178;2023-02-20T00:28:10;99255.10;;;0.59;88.46
41102;BME280;26845;50.190;19.178;2023-02-20T00:30:37;99258.61;;;0.61;88.51
41102;BME280;26845;50.190;19.178;2023-02-20T00:33:03;99253.92;;;0.64;88.48
41102;BME280;26845;50.190;19.178;2023-02-20T00:35:29;99262.70;;;0.68;88.44
41102;BME280;26845;50.190;19.178;2023-02-20T00:37:55;99261.02;;;0.70;88.38
41102;BME280;26845;50.190;19.178;2023-02-20T00:40:23;99261.41;;;0.73;88.48
41102;BME280;26845;50.190;19.178;2023-02-20T00:42:50;99259.91;;;0.73;88.28
41102;BME280;26845;50.190;19.178;2023-02-20T00:45:17;99258.11;;;0.72;88.31
41102;BME280;26845;50.190;19.178;2023-02-20T00:47:44;99259.59;;;0.69;88.18
41102;BME280;26845;50.190;19.178;2023-02-20T00:50:13;99263.86;;;0.64;88.25
41102;BME280;26845;50.190;19.178;2023-02-20T00:52:40;99254.85;;;0.66;88.33
41102;BME280;26845;50.190;19.178;2023-02-20T00:55:06;99255.26;;;0.71;88.43
41102;BME280;26845;50.190;19.178;2023-02-20T00:57:31;99256.81;;;0.74;88.54
41102;BME280;26845;50.190;19.178;2023-02-20T00:59:58;99259.77;;;0.80;88.41
41102;BME280;26845;50.190;19.178;2023-02-20T01:02:24;99264.64;;;0.80;88.27
41102;BME280;26845;50.190;19.178;2023-02-20T01:04:50;99271.19;;;0.74;88.17
41102;BME280;26845;50.190;19.178;2023-02-20T01:07:16;99271.57;;;0.66;88.18
41102;BME280;26845;50.190;19.178;2023-02-20T01:09:43;99273.49;;;0.66;88.53
41102;BME280;26845;50.190;19.178;2023-02-20T01:12:09;99270.77;;;0.64;88.50
41102;BME280;26845;50.190;19.178;2023-02-20T01:14:35;99267.39;;;0.60;88.40
41102;BME280;26845;50.190;19.178;2023-02-20T01:17:01;99266.60;;;0.57;88.63
41102;BME280;26845;50.190;19.178;2023-02-20T01:19:27;99260.71;;;0.55;88.96
41102;BME280;26845;50.190;19.178;2023-02-20T01:21:53;99262.48;;;0.51;88.95
41102;BME280;26845;50.190;19.178;2023-02-20T01:24:20;99258.02;;;0.49;89.17
41102;BME280;26845;50.190;19.178;2023-02-20T01:26:47;99257.31;;;0.47;89.14
41102;BME280;26845;50.190;19.178;2023-02-20T01:29:14;99255.45;;;0.47;89.20
41102;BME280;26845;50.190;19.178;2023-02-20T01:31:49;99254.46;;;0.45;89.36
41102;BME280;26845;50.190;19.178;2023-02-20T01:34:16;99253.92;;;0.47;89.41
41102;BME280;26845;50.190;19.178;2023-02-20T01:36:51;99258.56;;;0.49;89.21
41102;BME280;26845;50.190;19.178;2023-02-20T01:39:26;99260.33;;;0.50;89.28
41102;BME280;26845;50.190;19.178;2023-02-20T01:41:59;99260.77;;;0.53;89.27
41102;BME280;26845;50.190;19.178;2023-02-20T01:44:31;99257.95;;;0.57;89.22
41102;BME280;26845;50.190;19.178;2023-02-20T01:46:59;99246.98;;;0.58;89.09
41102;BME280;26845;50.190;19.178;2023-02-20T01:49:53;99245.85;;;0.60;89.02
41102;BME280;26845;50.190;19.178;2023-02-20T01:52:28;99242.04;;;0.59;89.01
41102;BME280;26845;50.190;19.178;2023-02-20T01:55:02;99245.98;;;0.59;88.91
41102;BME280;26845;50.190;19.178;2023-02-20T01:57:32;99253.02;;;0.62;88.77
41102;BME280;26845;50.190;19.178;2023-02-20T02:00:07;99254.46;;;0.65;88.80
41102;BME280;26845;50.190;19.178;2023-02-20T02:02:38;99247.32;;;0.65;88.66
41102;BME280;26845;50.190;19.178;2023-02-20T02:05:04;99241.98;;;0.66;88.47
41102;BME280;26845;50.190;19.178;2023-02-20T02:07:30;99238.35;;;0.69;88.21
41102;BME280;26845;50.190;19.178;2023-02-20T02:10:18;99229.32;;;0.72;88.38
41102;BME280;26845;50.190;19.178;2023-02-20T02:12:48;99211.95;;;0.73;88.35
41102;BME280;26845;50.190;19.178;2023-02-20T02:15:18;99201.86;;;0.75;88.45
41102;BME280;26845;50.190;19.178;2023-02-20T02:24:27;99180.20;;;0.78;88.24
41102;BME280;26845;50.190;19.178;2023-02-20T02:35:47;99174.40;;;0.84;87.94
41102;BME280;26845;50.190;19.178;2023-02-20T02:38:25;99173.59;;;0.84;88.16
41102;BME280;26845;50.190;19.178;2023-02-20T02:46:18;99162.65;;;0.87;87.90
41102;BME280;26845;50.190;19.178;2023-02-20T02:49:25;99161.33;;;0.90;88.20
41102;BME280;26845;50.190;19.178;2023-02-20T02:51:55;99166.05;;;0.91;88.19
41102;BME280;26845;50.190;19.178;2023-02-20T02:54:24;99174.77;;;0.95;88.31
41102;BME280;26845;50.190;19.178;2023-02-20T02:56:51;99181.13;;;1.00;88.25
41102;BME280;26845;50.190;19.178;2023-02-20T02:59:41;99173.92;;;1.02;87.98
41102;BME280;26845;50.190;19.178;2023-02-20T03:02:12;99172.48;;;1.07;87.89
41102;BME280;26845;50.190;19.178;2023-02-20T03:04:40;99181.52;;;1.13;87.93
41102;BME280;26845;50.190;19.178;2023-02-20T03:07:12;99179.25;;;1.18;88.54
41102;BME280;26845;50.190;19.178;2023-02-20T03:10:23;99174.59;;;1.23;88.36
41102;BME280;26845;50.190;19.178;2023-02-20T03:12:48;99169.31;;;1.22;88.01
41102;BME280;26845;50.190;19.178;2023-02-20T03:15:31;99160.00;;;1.26;88.25
41102;BME280;26845;50.190;19.178;2023-02-20T03:18:09;99153.66;;;1.30;88.12
41102;BME280;26845;50.190;19.178;2023-02-20T03:20:46;99148.87;;;1.34;88.14
41102;BME280;26845;50.190;19.178;2023-02-20T03:23:34;99144.69;;;1.33;87.87
41102;BME280;26845;50.190;19.178;2023-02-20T03:26:04;99130.50;;;1.26;87.77
41102;BME280;26845;50.190;19.178;2023-02-20T03:28:35;99124.71;;;1.24;87.90
41102;BME280;26845;50.190;19.178;2023-02-20T03:31:07;99119.07;;;1.24;87.91
41102;BME280;26845;50.190;19.178;2023-02-20T03:34:11;99116.86;;;1.23;88.02
41102;BME280;26845;50.190;19.178;2023-02-20T03:37:21;99124.36;;;1.20;87.80
41102;BME280;26845;50.190;19.178;2023-02-20T03:40:09;99132.00;;;1.21;87.93
41102;BME280;26845;50.190;19.178;2023-02-20T03:42:59;99136.13;;;1.26;87.99
41102;BME280;26845;50.190;19.178;2023-02-20T03:45:46;99132.27;;;1.27;88.08
41102;BME280;26845;50.190;19.178;2023-02-20T03:48:23;99136.19;;;1.29;87.78
41102;BME280;26845;50.190;19.178;2023-02-20T03:50:52;99135.61;;;1.25;87.64
41102;BME280;26845;50.190;19.178;2023-02-20T03:53:37;99134.03;;;1.22;87.53
41102;BME280;26845;50.190;19.178;2023-02-20T03:56:08;99139.83;;;1.22;87.62
41102;BME280;26845;50.190;19.178;2023-02-20T03:58:38;99146.01;;;1.21;87.40
41102;BME280;26845;50.190;19.178;2023-02-20T04:01:07;99140.52;;;1.23;87.76
41102;BME280;26845;50.190;19.178;2023-02-20T04:03:37;99137.85;;;1.30;88.04
41102;BME280;26845;50.190;19.178;2023-02-20T04:06:06;99135.20;;;1.37;87.87
41102;BME280;26845;50.190;19.178;2023-02-20T04:08:52;99133.25;;;1.30;87.31
41102;BME280;26845;50.190;19.178;2023-02-20T04:11:40;99127.73;;;1.24;87.27
41102;BME280;26845;50.190;19.178;2023-02-20T04:14:08;99128.04;;;1.18;87.17
41102;BME280;26845;50.190;19.178;2023-02-20T04:16:38;99124.83;;;1.12;87.21
41102;BME280;26845;50.190;19.178;2023-02-20T04:19:07;99127.25;;;1.10;87.15
41102;BME280;26845;50.190;19.178;2023-02-20T04:21:38;99124.97;;;1.08;87.24
41102;BME280;26845;50.190;19.178;2023-02-20T04:24:12;99131.36;;;1.09;87.50
41102;BME280;26845;50.190;19.178;2023-02-20T04:26:41;99129.56;;;1.10;87.38
41102;BME280;26845;50.190;19.178;2023-02-20T04:29:07;99119.41;;;0.99;86.95
41102;BME280;26845;50.190;19.178;2023-02-20T04:31:34;99119.23;;;0.90;86.87
41102;BME280;26845;50.190;19.178;2023-02-20T04:33:59;99119.05;;;0.80;86.89
41102;BME280;26845;50.190;19.178;2023-02-20T04:36:26;99121.29;;;0.67;86.86
41102;BME280;26845;50.190;19.178;2023-02-20T04:38:51;99115.61;;;0.59;87.02
41102;BME280;26845;50.190;19.178;2023-02-20T04:41:18;99112.58;;;0.50;87.10
41102;BME280;26845;50.190;19.178;2023-02-20T04:43:44;99112.75;;;0.48;87.27
41102;BME280;26845;50.190;19.178;2023-02-20T04:46:10;99111.40;;;0.40;87.06
41102;BME280;26845;50.190;19.178;2023-02-20T04:48:36;99112.66;;;0.32;87.04
41102;BME280;26845;50.190;19.178;2023-02-20T04:51:03;99110.64;;;0.24;87.09
41102;BME280;26845;50.190;19.178;2023-02-20T04:53:29;99108.73;;;0.11;87.17
41102;BME280;26845;50.190;19.178;2023-02-20T04:55:55;99102.45;;;-0.05;87.19
41102;BME280;26845;50.190;19.178;2023-02-20T04:58:21;99098.93;;;-0.10;87.53
41102;BME280;26845;50.190;19.178;2023-02-20T05:00:47;99095.34;;;-0.14;87.72
41102;BME280;26845;50.190;19.178;2023-02-20T05:03:14;99089.88;;;-0.20;87.85
41102;BME280;26845;50.190;19.178;2023-02-20T05:05:39;99083.21;;;-0.25;87.78
41102;BME280;26845;50.190;19.178;2023-02-20T05:08:07;99091.46;;;-0.27;87.75
41102;BME280;26845;50.190;19.178;2023-02-20T05:10:34;99093.09;;;-0.28;88.04
41102;BME280;26845;50.190;19.178;2023-02-20T05:13:00;99094.84;;;-0.30;88.12
41102;BME280;26845;50.190;19.178;2023-02-20T05:15:27;99088.67;;;-0.30;88.04
41102;BME280;26845;50.190;19.178;2023-02-20T05:17:53;99078.36;;;-0.32;88.29
41102;BME280;26845;50.190;19.178;2023-02-20T05:20:19;99068.95;;;-0.28;88.07
41102;BME280;26845;50.190;19.178;2023-02-20T05:22:46;99065.02;;;-0.22;88.34
41102;BME280;26845;50.190;19.178;2023-02-20T05:25:13;99064.54;;;-0.14;88.52
41102;BME280;26845;50.190;19.178;2023-02-20T05:27:40;99064.18;;;-0.15;88.08
41102;BME280;26845;50.190;19.178;2023-02-20T05:30:08;99071.31;;;-0.12;88.11
41102;BME280;26845;50.190;19.178;2023-02-20T05:32:34;99069.41;;;-0.08;88.18
41102;BME280;26845;50.190;19.178;2023-02-20T05:35:00;99075.48;;;-0.03;88.28
41102;BME280;26845;50.190;19.178;2023-02-20T05:37:27;99077.92;;;-0.07;88.17
41102;BME280;26845;50.190;19.178;2023-02-20T05:39:53;99070.25;;;-0.10;88.12
41102;BME280;26845;50.190;19.178;2023-02-20T05:42:19;99073.06;;;-0.12;88.18
41102;BME280;26845;50.190;19.178;2023-02-20T05:44:47;99079.59;;;-0.13;88.15
41102;BME280;26845;50.190;19.178;2023-02-20T05:47:14;99086.09;;;-0.13;88.54
41102;BME280;26845;50.190;19.178;2023-02-20T05:49:40;99079.88;;;-0.14;88.53
41102;BME280;26845;50.190;19.178;2023-02-20T05:52:06;99076.00;;;-0.14;88.45
41102;BME280;26845;50.190;19.178;2023-02-20T05:54:37;99074.73;;;-0.13;88.57
41102;BME280;26845;50.190;19.178;2023-02-20T05:57:03;99077.81;;;-0.12;88.38
41102;BME280;26845;50.190;19.178;2023-02-20T05:59:30;99078.28;;;-0.10;88.23
41102;BME280;26845;50.190;19.178;2023-02-20T06:01:57;99086.16;;;-0.09;88.37
41102;BME280;26845;50.190;19.178;2023-02-20T06:04:23;99088.45;;;-0.10;88.34
41102;BME280;26845;50.190;19.178;2023-02-20T06:06:50;99091.88;;;-0.08;88.10
41102;BME280;26845;50.190;19.178;2023-02-20T06:09:16;99094.61;;;-0.08;88.15
41102;BME280;26845;50.190;19.178;2023-02-20T06:11:50;99085.59;;;-0.10;87.96
41102;BME280;26845;50.190;19.178;2023-02-20T06:14:18;99089.42;;;-0.13;87.97
41102;BME280;26845;50.190;19.178;2023-02-20T06:16:44;99086.16;;;-0.09;88.24
41102;BME280;26845;50.190;19.178;2023-02-20T06:19:11;99090.06;;;-0.06;88.18
41102;BME280;26845;50.190;19.178;2023-02-20T06:21:44;99098.60;;;0.00;88.22
41102;BME280;26845;50.190;19.178;2023-02-20T06:24:10;99102.25;;;0.05;88.33
41102;BME280;26845;50.190;19.178;2023-02-20T06:26:39;99099.83;;;0.08;88.14
41102;BME280;26845;50.190;19.178;2023-02-20T06:29:05;99099.38;;;0.16;88.19
41102;BME280;26845;50.190;19.178;2023-02-20T06:31:31;99097.88;;;0.23;88.12
41102;BME280;26845;50.190;19.178;2023-02-20T06:33:57;99094.17;;;0.28;88.12
41102;BME280;26845;50.190;19.178;2023-02-20T06:36:26;99083.56;;;0.29;87.97
41102;BME280;26845;50.190;19.178;2023-02-20T06:38:53;99087.13;;;0.32;88.12
41102;BME280;26845;50.190;19.178;2023-02-20T06:41:19;99082.02;;;0.36;88.15
41102;BME280;26845;50.190;19.178;2023-02-20T06:43:45;99077.66;;;0.42;87.79
41102;BME280;26845;50.190;19.178;2023-02-20T06:46:11;99070.05;;;0.45;87.71
41102;BME280;26845;50.190;19.178;2023-02-20T06:48:55;99059.34;;;0.50;87.88
41102;BME280;26845;50.190;19.178;2023-02-20T06:51:37;99053.48;;;0.57;88.25
41102;BME280;26845;50.190;19.178;2023-02-20T06:54:05;99056.38;;;0.60;87.69
41102;BME280;26845;50.190;19.178;2023-02-20T06:56:32;99063.11;;;0.64;87.73
41102;BME280;26845;50.190;19.178;2023-02-20T06:58:59;99066.77;;;0.67;87.65
41102;BME280;26845;50.190;19.178;2023-02-20T07:01:28;99068.80;;;0.69;87.65
41102;BME280;26845;50.190;19.178;2023-02-20T07:03:54;99065.38;;;0.72;87.74
41102;BME280;26845;50.190;19.178;2023-02-20T07:06:21;99071.23;;;0.74;87.57
41102;BME280;26845;50.190;19.178;2023-02-20T07:08:48;99064.05;;;0.77;87.66
41102;BME280;26845;50.190;19.178;2023-02-20T07:11:19;99067.06;;;0.79;87.81
41102;BME280;26845;50.190;19.178;2023-02-20T07:13:45;99067.02;;;0.84;87.88
41102;BME280;26845;50.190;19.178;2023-02-20T07:16:11;99063.85;;;0.90;87.65
41102;BME280;26845;50.190;19.178;2023-02-20T07:18:37;99054.73;;;0.96;87.66
41102;BME280;26845;50.190;19.178;2023-02-20T07:21:04;99045.30;;;1.04;87.83
41102;BME280;26845;50.190;19.178;2023-02-20T07:23:30;99050.59;;;1.12;87.67
41102;BME280;26845;50.190;19.178;2023-02-20T07:25:57;99042.23;;;1.18;87.28
41102;BME280;26845;50.190;19.178;2023-02-20T07:28:22;99040.81;;;1.24;87.74
41102;BME280;26845;50.190;19.178;2023-02-20T07:30:49;99037.14;;;1.31;87.44
41102;BME280;26845;50.190;19.178;2023-02-20T07:33:16;99033.15;;;1.36;87.12
41102;BME280;26845;50.190;19.178;2023-02-20T07:35:44;99029.77;;;1.41;87.14
41102;BME280;26845;50.190;19.178;2023-02-20T07:38:10;99021.88;;;1.47;86.95
41102;BME280;26845;50.190;19.178;2023-02-20T07:40:36;99022.48;;;1.52;86.78
41102;BME280;26845;50.190;19.178;2023-02-20T07:43:03;99015.33;;;1.57;86.36
41102;BME280;26845;50.190;19.178;2023-02-20T07:45:28;99010.09;;;1.60;86.04
41102;BME280;26845;50.190;19.178;2023-02-20T07:47:54;99003.21;;;1.62;86.25
41102;BME280;26845;50.190;19.178;2023-02-20T07:50:20;99006.13;;;1.66;86.15
41102;BME280;26845;50.190;19.178;2023-02-20T07:52:47;99003.56;;;1.71;86.24
41102;BME280;26845;50.190;19.178;2023-02-20T07:55:15;99000.56;;;1.73;85.83
41102;BME280;26845;50.190;19.178;2023-02-20T07:57:41;98998.52;;;1.74;85.81
41102;BME280;26845;50.190;19.178;2023-02-20T08:00:07;98990.88;;;1.77;86.43
41102;BME280;26845;50.190;19.178;2023-02-20T08:02:35;98989.06;;;1.82;86.21
41102;BME280;26845;50.190;19.178;2023-02-20T08:05:01;98978.60;;;1.87;86.21
41102;BME280;26845;50.190;19.178;2023-02-20T08:07:26;98970.73;;;1.93;86.47
41102;BME280;26845;50.190;19.178;2023-02-20T08:09:53;98974.20;;;2.01;86.37
41102;BME280;26845;50.190;19.178;2023-02-20T08:12:19;98975.59;;;2.07;86.03
41102;BME280;26845;50.190;19.178;2023-02-20T08:14:49;98987.92;;;2.10;86.45
41102;BME280;26845;50.190;19.178;2023-02-20T08:17:15;98985.84;;;2.12;85.88
41102;BME280;26845;50.190;19.178;2023-02-20T08:19:41;98980.85;;;2.15;86.02
41102;BME280;26845;50.190;19.178;2023-02-20T08:22:07;98976.92;;;2.17;85.86
41102;BME280;26845;50.190;19.178;2023-02-20T08:24:33;98984.19;;;2.20;85.87
41102;BME280;26845;50.190;19.178;2023-02-20T08:26:59;98988.10;;;2.23;85.90
41102;BME280;26845;50.190;19.178;2023-02-20T08:29:26;98981.83;;;2.25;85.80
41102;BME280;26845;50.190;19.178;2023-02-20T08:31:52;98985.50;;;2.30;86.51
41102;BME280;26845;50.190;19.178;2023-02-20T08:34:18;98995.77;;;2.36;85.66
41102;BME280;26845;50.190;19.178;2023-02-20T08:36:44;98974.40;;;2.39;85.82
41102;BME280;26845;50.190;19.178;2023-02-20T08:39:10;98972.63;;;2.44;85.90
41102;BME280;26845;50.190;19.178;2023-02-20T08:41:44;98968.25;;;2.51;85.81
41102;BME280;26845;50.190;19.178;2023-02-20T08:44:10;98971.15;;;2.55;85.71
41102;BME280;26845;50.190;19.178;2023-02-20T08:46:36;98970.10;;;2.60;85.89
41102;BME280;26845;50.190;19.178;2023-02-20T08:49:02;98971.44;;;2.67;86.02
41102;BME280;26845;50.190;19.178;2023-02-20T08:51:28;98954.31;;;2.75;86.09
41102;BME280;26845;50.190;19.178;2023-02-20T08:53:55;98948.21;;;2.82;86.01
41102;BME280;26845;50.190;19.178;2023-02-20T08:56:20;98950.52;;;2.88;85.79
41102;BME280;26845;50.190;19.178;2023-02-20T08:58:46;98946.70;;;2.93;85.55
41102;BME280;26845;50.190;19.178;2023-02-20T09:01:13;98937.80;;;2.99;85.83
41102;BME280;26845;50.190;19.178;2023-02-20T09:03:39;98931.02;;;3.07;86.00
41102;BME280;26845;50.190;19.178;2023-02-20T09:06:06;98934.19;;;3.18;86.50
41102;BME280;26845;50.190;19.178;2023-02-20T09:08:33;98917.50;;;3.29;84.98
41102;BME280;26845;50.190;19.178;2023-02-20T09:10:58;98928.73;;;3.33;85.05
41102;BME280;26845;50.190;19.178;2023-02-20T09:13:25;98919.10;;;3.33;84.37
41102;BME280;26845;50.190;19.178;2023-02-20T09:15:51;98915.48;;;3.34;84.88
41102;BME280;26845;50.190;19.178;2023-02-20T09:18:17;98900.59;;;3.34;84.86
41102;BME280;26845;50.190;19.178;2023-02-20T09:20:43;98899.12;;;3.36;85.38
41102;BME280;26845;50.190;19.178;2023-02-20T09:23:09;98886.66;;;3.38;85.49
41102;BME280;26845;50.190;19.178;2023-02-20T09:25:35;98890.35;;;3.40;84.77
41102;BME280;26845;50.190;19.178;2023-02-20T09:28:01;98893.80;;;3.36;83.61
41102;BME280;26845;50.190;19.178;2023-02-20T09:30:27;98884.27;;;3.33;84.82
41102;BME280;26845;50.190;19.178;2023-02-20T09:32:54;98883.67;;;3.34;85.09
41102;BME280;26845;50.190;19.178;2023-02-20T09:35:25;98886.33;;;3.37;84.84
41102;BME280;26845;50.190;19.178;2023-02-20T09:37:51;98878.20;;;3.40;84.71
41102;BME280;26845;50.190;19.178;2023-02-20T09:40:25;98872.94;;;3.43;85.02
41102;BME280;26845;50.190;19.178;2023-02-20T09:43:16;98869.77;;;3.48;85.40
41102;BME280;26845;50.190;19.178;2023-02-20T09:46:08;98867.88;;;3.56;85.57
41102;BME280;26845;50.190;19.178;2023-02-20T09:49:13;98852.67;;;3.64;85.08
41102;BME280;26845;50.190;19.178;2023-02-20T09:51:48;98854.29;;;3.66;84.45
41102;BME280;26845;50.190;19.178;2023-02-20T09:54:21;98850.44;;;3.67;84.35
41102;BME280;26845;50.190;19.178;2023-02-20T09:56:51;98847.08;;;3.69;84.11
41102;BME280;26845;50.190;19.178;2023-02-20T09:59:23;98848.79;;;3.70;84.49
41102;BME280;26845;50.190;19.178;2023-02-20T10:02:23;98842.42;;;3.73;84.98
41102;BME280;26845;50.190;19.178;2023-02-20T10:04:52;98841.05;;;3.76;84.60
41102;BME280;26845;50.190;19.178;2023-02-20T10:07:40;98840.55;;;3.76;84.77
41102;BME280;26845;50.190;19.178;2023-02-20T10:10:25;98841.83;;;3.80;85.26
41102;BME280;26845;50.190;19.178;2023-02-20T10:15:45;98829.64;;;3.87;84.87
41102;BME280;26845;50.190;19.178;2023-02-20T10:23:47;98813.21;;;4.03;84.72
41102;BME280;26845;50.190;19.178;2023-02-20T10:26:22;98810.52;;;4.06;85.04
41102;BME280;26845;50.190;19.178;2023-02-20T10:28:51;98797.33;;;4.11;84.17
41102;BME280;26845;50.190;19.178;2023-02-20T10:31:28;98790.48;;;4.18;84.75
41102;BME280;26845;50.190;19.178;2023-02-20T10:34:08;98778.77;;;4.24;84.51
41102;BME280;26845;50.190;19.178;2023-02-20T10:36:42;98778.55;;;4.30;84.77
41102;BME280;26845;50.190;19.178;2023-02-20T10:39:15;98765.34;;;4.33;84.64
41102;BME280;26845;50.190;19.178;2023-02-20T10:42:14;98762.04;;;4.35;83.93
41102;BME280;26845;50.190;19.178;2023-02-20T10:45:01;98749.82;;;4.38;84.67
41102;BME280;26845;50.190;19.178;2023-02-20T10:47:56;98748.92;;;4.43;84.55
41102;BME280;26845;50.190;19.178;2023-02-20T10:53:23;98744.34;;;4.56;84.10
41102;BME280;26845;50.190;19.178;2023-02-20T10:55:58;98735.29;;;4.64;84.52
41102;BME280;26845;50.190;19.178;2023-02-20T10:58:40;98730.65;;;4.73;84.58
41102;BME280;26845;50.190;19.178;2023-02-20T11:01:11;98723.66;;;4.82;84.56
41102;BME280;26845;50.190;19.178;2023-02-20T11:03:50;98712.39;;;4.89;83.86
41102;BME280;26845;50.190;19.178;2023-02-20T11:06:20;98703.11;;;4.97;84.19
41102;BME280;26845;50.190;19.178;2023-02-20T11:08:47;98689.57;;;5.03;83.46
41102;BME280;26845;50.190;19.178;2023-02-20T11:11:27;98684.81;;;5.09;83.90
41102;BME280;26845;50.190;19.178;2023-02-20T11:13:53;98686.53;;;5.18;83.53
41102;BME280;26845;50.190;19.178;2023-02-20T11:16:25;98680.04;;;5.25;84.28
41102;BME280;26845;50.190;19.178;2023-02-20T11:18:58;98667.10;;;5.31;83.38
41102;BME280;26845;50.190;19.178;2023-02-20T11:21:40;98663.58;;;5.31;82.54
41102;BME280;26845;50.190;19.178;2023-02-20T11:24:25;98670.02;;;5.31;83.14
41102;BME280;26845;50.190;19.178;2023-02-20T11:27:05;98676.08;;;5.33;82.89
41102;BME280;26845;50.190;19.178;2023-02-20T11:30:11;98649.77;;;5.37;82.96
41102;BME280;26845;50.190;19.178;2023-02-20T11:32:41;98654.50;;;5.44;83.23
41102;BME280;26845;50.190;19.178;2023-02-20T11:35:34;98645.44;;;5.45;83.06
41102;BME280;26845;50.190;19.178;2023-02-20T11:38:26;98636.02;;;5.48;83.37
41102;BME280;26845;50.190;19.178;2023-02-20T11:43:31;98616.98;;;5.54;83.15
41102;BME280;26845;50.190;19.178;2023-02-20T11:46:27;98621.60;;;5.55;83.53
41102;BME280;26845;50.190;19.178;2023-02-20T11:49:04;98613.13;;;5.55;84.02
41102;BME280;26845;50.190;19.178;2023-02-20T11:51:43;98599.97;;;5.60;84.89
41102;BME280;26845;50.190;19.178;2023-02-20T11:56:35;98567.96;;;5.67;84.20
41102;BME280;26845;50.190;19.178;2023-02-20T11:59:31;98558.81;;;5.67;83.87
41102;BME280;26845;50.190;19.178;2023-02-20T12:02:25;98568.05;;;5.69;84.19
41102;BME280;26845;50.190;19.178;2023-02-20T12:05:04;98569.88;;;5.69;84.11
41102;BME280;26845;50.190;19.178;2023-02-20T12:10:34;98550.63;;;5.74;84.86
41102;BME280;26845;50.190;19.178;2023-02-20T12:13:03;98540.73;;;5.77;84.62
41102;BME280;26845;50.190;19.178;2023-02-20T12:15:29;98542.13;;;5.80;84.88
41102;BME280;26845;50.190;19.178;2023-02-20T12:21:33;98516.42;;;5.91;84.65
41102;BME280;26845;50.190;19.178;2023-02-20T12:23:45;98520.91;;;5.95;84.84
41102;BME280;26845;50.190;19.178;2023-02-20T12:26:54;98519.21;;;6.00;85.13
41102;BME280;26845;50.190;19.178;2023-02-20T12:40:38;98487.22;;;6.34;83.76
41102;BME280;26845;50.190;19.178;2023-02-20T12:46:23;98480.48;;;6.42;83.41
41102;BME280;26845;50.190;19.178;2023-02-20T12:52:11;98444.64;;;6.46;82.69
41102;BME280;26845;50.190;19.178;2023-02-20T12:58:10;98442.02;;;6.67;83.50
41102;BME280;26845;50.190;19.178;2023-02-20T13:00:43;98446.21;;;6.91;82.03
41102;BME280;26845;50.190;19.178;2023-02-20T13:03:20;98447.80;;;7.11;80.58
41102;BME280;26845;50.190;19.178;2023-02-20T13:05:50;98440.84;;;7.24;79.99
41102;BME280;26845;50.190;19.178;2023-02-20T13:08:26;98438.91;;;7.42;80.50
41102;BME280;26845;50.190;19.178;2023-02-20T13:11:01;98443.54;;;7.55;78.82
41102;BME280;26845;50.190;19.178;2023-02-20T13:13:37;98434.85;;;7.58;79.23
41102;BME280;26845;50.190;19.178;2023-02-20T13:16:13;98435.75;;;7.57;79.35
41102;BME280;26845;50.190;19.178;2023-02-20T13:18:47;98429.23;;;7.60;79.00
41102;BME280;26845;50.190;19.178;2023-02-20T13:21:20;98418.16;;;7.71;79.37
41102;BME280;26845;50.190;19.178;2023-02-20T13:23:47;98415.48;;;7.75;78.61
41102;BME280;26845;50.190;19.178;2023-02-20T13:29:19;98404.41;;;7.91;78.35
41102;BME280;26845;50.190;19.178;2023-02-20T13:34:36;98389.56;;;7.87;78.35
41102;BME280;26845;50.190;19.178;2023-02-20T13:37:04;98384.23;;;7.80;77.43
41102;BME280;26845;50.190;19.178;2023-02-20T13:39:35;98374.88;;;7.75;77.69
41102;BME280;26845;50.190;19.178;2023-02-20T13:44:48;98378.56;;;7.83;78.28
41102;BME280;26845;50.190;19.178;2023-02-20T13:47:29;98356.64;;;7.89;77.13
41102;BME280;26845;50.190;19.178;2023-02-20T13:49:57;98365.05;;;7.86;77.36
41102;BME280;26845;50.190;19.178;2023-02-20T13:52:37;98353.54;;;7.80;77.04
41102;BME280;26845;50.190;19.178;2023-02-20T13:55:13;98337.77;;;7.72;77.43
41102;BME280;26845;50.190;19.178;2023-02-20T13:57:48;98345.92;;;7.65;76.89
41102;BME280;26845;50.190;19.178;2023-02-20T14:00:53;98326.19;;;7.60;77.16
41102;BME280;26845;50.190;19.178;2023-02-20T14:03:20;98309.73;;;7.55;78.16
41102;BME280;26845;50.190;19.178;2023-02-20T14:06:04;98311.77;;;7.51;78.24
41102;BME280;26845;50.190;19.178;2023-02-20T14:08:30;98305.20;;;7.48;78.38
41102;BME280;26845;50.190;19.178;2023-02-20T14:11:15;98279.20;;;7.45;78.07
41102;BME280;26845;50.190;19.178;2023-02-20T14:13:49;98265.86;;;7.44;78.83
41102;BME280;26845;50.190;19.178;2023-02-20T14:19:00;98237.64;;;7.41;79.06
41102;BME280;26845;50.190;19.178;2023-02-20T14:21:27;98224.60;;;7.41;79.17
41102;BME280;26845;50.190;19.178;2023-02-20T14:23:54;98212.64;;;7.41;79.29
41102;BME280;26845;50.190;19.178;2023-02-20T14:28:56;98204.40;;;7.44;79.71
41102;BME280;26845;50.190;19.178;2023-02-20T14:31:29;98197.53;;;7.47;79.40
41102;BME280;26845;50.190;19.178;2023-02-20T14:34:01;98190.39;;;7.51;79.70
41102;BME280;26845;50.190;19.178;2023-02-20T14:36:54;98188.98;;;7.54;79.56
41102;BME280;26845;50.190;19.178;2023-02-20T14:42:03;98189.20;;;7.65;78.93
41102;BME280;26845;50.190;19.178;2023-02-20T14:44:30;98179.86;;;7.68;79.21